Time;durP1;ratioP1;P1;durP2;ratioP2;P2;SDS_P1;SDS_P2;PMS_P1;PMS_P2;Temp;Humidity;BMP_temperature;BMP_pressure;BME280_temperature;BME280_humidity;BME280_pressure;Samples;Min_cycle;Max_cycle;Signal;HPM_P1;HPM_P2
2021/08/26 00:05:48;;;;;;;7.90;4.80;;;;;;;14.37;67.64;99290.21;137273;1201;112227;-74
2021/08/26 00:08:54;;;;;;;7.00;4.60;;;;;;;14.35;67.62;99289.13;137374;1201;97693;-73
2021/08/26 00:12:00;;;;;;;9.70;5.60;;;;;;;14.37;67.59;99283.18;137408;1194;98048;-75
2021/08/26 00:15:07;;;;;;;9.20;5.40;;;;;;;14.39;67.52;99277.08;137324;1203;108736;-74
2021/08/26 00:18:12;;;;;;;9.30;5.60;;;;;;;14.39;67.67;99272.34;137369;1201;97823;-74
2021/08/26 00:21:18;;;;;;;10.30;5.30;;;;;;;14.41;67.80;99266.77;137378;1201;112237;-74
2021/08/26 00:24:23;;;;;;;8.70;5.40;;;;;;;14.41;67.65;99260.98;137363;1201;97780;-74
2021/08/26 00:27:29;;;;;;;8.10;5.10;;;;;;;14.40;67.72;99250.83;137328;1201;97658;-74
2021/08/26 00:30:34;;;;;;;10.90;5.80;;;;;;;14.38;67.63;99252.85;137312;1203;108562;-73
2021/08/26 00:33:40;;;;;;;8.80;5.70;;;;;;;14.34;67.85;99248.47;137366;1202;99001;-73
2021/08/26 00:36:45;;;;;;;7.50;4.80;;;;;;;14.30;67.88;99249.07;137520;1201;111202;-73
2021/08/26 00:39:50;;;;;;;8.90;4.80;;;;;;;14.28;67.84;99246.13;137303;1194;97778;-73
2021/08/26 00:42:57;;;;;;;8.50;5.20;;;;;;;14.30;67.95;99246.42;137409;1201;99012;-72
2021/08/26 00:46:03;;;;;;;7.90;5.10;;;;;;;14.32;67.97;99239.83;137380;1201;108261;-74
2021/08/26 00:49:11;;;;;;;8.90;5.50;;;;;;;14.35;67.97;99231.58;137357;1201;99007;-73
2021/08/26 00:52:16;;;;;;;8.20;5.30;;;;;;;14.37;68.13;99230.60;137353;1201;112352;-74
2021/08/26 00:55:22;;;;;;;11.00;5.40;;;;;;;14.38;68.05;99230.07;137439;1201;99010;-73
2021/08/26 00:58:30;;;;;;;11.10;5.90;;;;;;;14.38;68.14;99228.98;137349;1201;97742;-73
2021/08/26 01:01:43;;;;;;;8.80;5.50;;;;;;;14.36;68.50;99224.68;137381;1201;108290;-74
2021/08/26 01:04:51;;;;;;;8.20;5.40;;;;;;;14.32;68.53;99223.02;137397;1202;97771;-74
2021/08/26 01:08:03;;;;;;;10.70;5.10;;;;;;;14.30;68.71;99218.77;137419;1195;112206;-73
2021/08/26 01:11:07;;;;;;;;;;;;;;;14.31;68.84;99213.45;137356;1201;97720;-72
2021/08/26 01:14:14;;;;;;;9.20;5.50;;;;;;;14.31;68.85;99210.59;137337;1201;97699;-73
2021/08/26 01:17:20;;;;;;;9.50;5.40;;;;;;;14.30;69.25;99208.27;137321;1201;108638;-74
2021/08/26 01:20:25;;;;;;;8.40;5.20;;;;;;;14.31;69.22;99213.33;137389;1201;98621;-73
2021/08/26 01:23:34;;;;;;;8.30;5.30;;;;;;;14.29;69.33;99207.78;137319;1201;112475;-73
2021/08/26 01:26:43;;;;;;;8.60;5.10;;;;;;;14.26;69.32;99203.90;137332;1201;97800;-74
2021/08/26 01:29:50;;;;;;;8.50;4.90;;;;;;;14.21;69.38;99201.98;137333;1201;97699;-74
2021/08/26 01:32:59;;;;;;;8.30;4.80;;;;;;;14.16;69.77;99203.02;137410;1201;108628;-74
2021/08/26 01:36:06;;;;;;;11.10;5.40;;;;;;;14.17;69.61;99202.11;137365;1194;99033;-76
2021/08/26 01:39:14;;;;;;;10.00;5.50;;;;;;;14.21;69.95;99201.08;137339;1201;112295;-76
2021/08/26 01:42:20;;;;;;;9.30;5.20;;;;;;;14.24;69.67;99199.55;137320;1194;98589;-75
2021/08/26 01:45:25;;;;;;;8.30;5.20;;;;;;;14.26;69.89;99198.77;137374;1201;97726;-73
2021/08/26 01:48:31;;;;;;;9.00;5.50;;;;;;;14.24;70.02;99194.02;137338;1201;108660;-74
2021/08/26 01:51:37;;;;;;;8.10;5.00;;;;;;;14.20;70.10;99193.36;137304;1201;97692;-74
2021/08/26 01:54:44;;;;;;;8.70;4.90;;;;;;;14.18;70.11;99188.60;137294;1195;112106;-75
2021/08/26 01:57:49;;;;;;;8.20;5.20;;;;;;;14.19;70.21;99189.64;137355;1201;97761;-70
2021/08/26 02:00:55;;;;;;;8.80;5.00;;;;;;;14.20;70.51;99181.13;137351;1201;97718;-74
2021/08/26 02:04:00;;;;;;;11.40;5.30;;;;;;;14.21;70.46;99182.05;137343;1194;108450;-75
2021/08/26 02:07:06;;;;;;;7.70;5.20;;;;;;;14.23;70.38;99176.33;137327;1201;97682;-74
2021/08/26 02:10:13;;;;;;;8.50;5.00;;;;;;;14.21;70.60;99176.72;137291;1201;112444;-74
2021/08/26 02:13:18;;;;;;;7.80;4.50;;;;;;;14.19;70.75;99167.73;137400;1201;97892;-73
2021/08/26 02:16:24;;;;;;;8.10;4.80;;;;;;;14.17;70.67;99164.46;137387;1201;97765;-72
2021/08/26 02:19:29;;;;;;;11.70;4.90;;;;;;;14.17;70.82;99158.48;137336;1201;108555;-74
2021/08/26 02:22:35;;;;;;;8.60;5.30;;;;;;;14.18;70.92;99155.87;137337;1201;97800;-73
2021/08/26 02:25:40;;;;;;;10.30;5.70;;;;;;;14.19;70.87;99158.10;137348;1201;112248;-72
2021/08/26 02:28:45;;;;;;;8.60;5.30;;;;;;;14.20;70.96;99152.73;137327;1195;98577;-73
2021/08/26 02:31:51;;;;;;;10.60;5.80;;;;;;;14.19;71.00;99146.95;137364;1201;97780;-74
2021/08/26 02:34:56;;;;;;;8.80;5.30;;;;;;;14.15;71.21;99148.03;137292;1201;109119;-71
2021/08/26 02:38:01;;;;;;;6.80;4.60;;;;;;;14.13;71.23;99146.58;137334;1195;97817;-71
2021/08/26 02:41:07;;;;;;;8.90;5.20;;;;;;;14.15;71.23;99145.31;137335;1201;112168;-72
2021/08/26 02:44:12;;;;;;;7.80;5.00;;;;;;;14.16;71.46;99147.16;137303;1201;99011;-74
2021/08/26 02:47:18;;;;;;;7.90;5.00;;;;;;;14.18;71.39;99148.04;137351;1201;97767;-72
2021/08/26 02:50:24;;;;;;;9.10;5.20;;;;;;;14.18;71.44;99152.77;137397;1201;108261;-73
2021/08/26 02:53:29;;;;;;;7.70;5.10;;;;;;;14.16;71.69;99144.77;137377;1201;97710;-73
2021/08/26 02:56:35;;;;;;;8.90;5.10;;;;;;;14.12;71.74;99142.23;137291;1201;112170;-73
2021/08/26 02:59:40;;;;;;;7.80;4.40;;;;;;;14.11;71.77;99135.76;137308;1201;99095;-72
2021/08/26 03:02:45;;;;;;;7.60;5.00;;;;;;;14.11;71.89;99136.88;137384;1201;97686;-74
2021/08/26 03:05:51;;;;;;;7.20;4.90;;;;;;;14.12;71.97;99131.46;137280;1201;108512;-73
2021/08/26 03:08:56;;;;;;;7.50;4.90;;;;;;;14.15;71.94;99129.42;137319;1201;97744;-73
2021/08/26 03:12:01;;;;;;;7.90;5.00;;;;;;;14.14;71.99;99124.13;137369;1201;112196;-75
2021/08/26 03:15:09;;;;;;;7.00;4.50;;;;;;;14.12;72.09;99119.95;137392;1194;97734;-74
2021/08/26 03:18:14;;;;;;;8.40;4.40;;;;;;;14.12;72.19;99120.77;137407;1201;97787;-74
2021/08/26 03:21:19;;;;;;;7.40;4.90;;;;;;;14.15;72.31;99119.59;137284;1201;108661;-74
2021/08/26 03:24:25;;;;;;;8.40;5.20;;;;;;;14.18;72.16;99117.56;137336;1201;99016;-73
2021/08/26 03:27:30;;;;;;;8.30;5.20;;;;;;;14.19;72.41;99114.56;137340;1194;112789;-73
2021/08/26 03:30:36;;;;;;;7.50;4.70;;;;;;;14.17;72.55;99115.95;137371;1201;97748;-70
2021/08/26 03:33:41;;;;;;;6.80;4.10;;;;;;;14.12;72.66;99115.95;137313;1201;98384;-74
2021/08/26 03:36:46;;;;;;;7.90;4.60;;;;;;;14.11;72.63;99111.66;137320;1201;107485;-74
2021/08/26 03:39:52;;;;;;;8.40;5.10;;;;;;;14.13;72.86;99112.27;137374;1201;99016;-73
2021/08/26 03:42:58;;;;;;;7.20;4.80;;;;;;;14.14;72.95;99109.31;137298;1201;112677;-74
2021/08/26 03:46:03;;;;;;;9.70;5.20;;;;;;;14.16;73.11;99107.80;137373;1201;98014;-73
2021/08/26 03:49:08;;;;;;;8.30;4.90;;;;;;;14.17;72.82;99106.06;137346;1201;98604;-71
2021/08/26 03:52:14;;;;;;;6.40;4.40;;;;;;;14.18;73.17;99099.70;137335;1194;108672;-74
2021/08/26 03:55:19;;;;;;;7.40;4.20;;;;;;;14.19;73.03;99096.52;137306;1201;97728;-73
2021/08/26 03:58:24;;;;;;;6.80;4.10;;;;;;;14.20;73.13;99095.45;137408;1195;112166;-72
2021/08/26 04:01:30;;;;;;;7.40;4.60;;;;;;;14.23;73.23;99094.76;137321;1201;99003;-73
2021/08/26 04:04:35;;;;;;;7.50;5.30;;;;;;;14.26;73.15;99092.15;137355;1201;98580;-73
2021/08/26 04:07:41;;;;;;;8.40;5.10;;;;;;;14.27;73.34;99090.26;137358;1201;108516;-74
2021/08/26 04:10:46;;;;;;;6.40;4.20;;;;;;;14.26;73.17;99090.16;137336;1201;98123;-74
2021/08/26 04:13:52;;;;;;;6.60;4.20;;;;;;;14.26;73.29;99089.27;137307;1201;112179;-74
2021/08/26 04:16:57;;;;;;;6.70;4.20;;;;;;;14.28;73.45;99088.89;137298;1201;97777;-72
2021/08/26 04:20:03;;;;;;;6.40;4.00;;;;;;;14.30;73.60;99088.19;137346;1201;97668;-73
2021/08/26 04:23:09;;;;;;;6.70;4.70;;;;;;;14.33;73.56;99085.71;137376;1201;108622;-74
2021/08/26 04:26:14;;;;;;;6.70;4.60;;;;;;;14.33;73.61;99084.98;137389;1201;97740;-75
2021/08/26 04:29:20;;;;;;;6.90;4.30;;;;;;;14.32;73.66;99081.63;137261;1194;112203;-74
2021/08/26 04:32:25;;;;;;;6.00;4.00;;;;;;;14.34;73.93;99082.83;137322;1195;97708;-73
2021/08/26 04:35:30;;;;;;;7.50;4.60;;;;;;;14.37;73.92;99082.63;137354;1201;98633;-71
2021/08/26 04:38:36;;;;;;;7.00;4.30;;;;;;;14.41;73.89;99080.10;137289;1201;108682;-71
2021/08/26 04:41:42;;;;;;;5.90;4.30;;;;;;;14.44;73.92;99077.14;137353;1201;99103;-72
2021/08/26 04:48:23;;;;;;;6.20;4.10;;;;;;;14.46;74.06;99074.40;137305;1195;97714;-75
2021/08/26 04:51:34;;;;;;;6.20;4.10;;;;;;;14.47;73.77;99068.41;137383;1194;97798;-71
2021/08/26 04:54:41;;;;;;;6.70;4.30;;;;;;;14.50;74.14;99065.94;137604;1201;108518;-72
2021/08/26 04:57:49;;;;;;;6.30;4.30;;;;;;;14.56;74.10;99066.11;137356;1201;99025;-76
2021/08/26 05:00:58;;;;;;;5.20;4.00;;;;;;;14.60;74.23;99065.64;137228;1201;111376;-72
2021/08/26 05:04:05;;;;;;;7.70;4.80;;;;;;;14.61;74.27;99072.94;137255;1201;98586;-70
2021/08/26 05:07:10;;;;;;;5.00;3.90;;;;;;;14.59;74.41;99071.65;137221;1201;98042;-72
2021/08/26 05:10:17;;;;;;;7.20;3.70;;;;;;;14.58;74.24;99072.45;137253;1201;108636;-70
2021/08/26 05:13:23;;;;;;;5.80;4.10;;;;;;;14.59;74.48;99068.96;137321;1201;97686;-70
2021/08/26 05:16:28;;;;;;;6.60;4.40;;;;;;;14.65;74.47;99069.46;137388;1201;112014;-72
2021/08/26 05:19:34;;;;;;;7.30;4.40;;;;;;;14.66;74.41;99068.17;137385;1201;97868;-71
2021/08/26 05:22:40;;;;;;;6.60;4.80;;;;;;;14.68;74.58;99069.13;137334;1201;97679;-71
2021/08/26 05:25:45;;;;;;;6.10;4.20;;;;;;;14.69;74.35;99069.58;137352;1195;108529;-71
2021/08/26 05:28:51;;;;;;;5.20;3.70;;;;;;;14.66;74.59;99069.38;137346;1195;97775;-71
2021/08/26 05:31:56;;;;;;;5.60;3.90;;;;;;;14.70;74.57;99065.02;137340;1201;110978;-70
2021/08/26 05:35:01;;;;;;;5.50;4.10;;;;;;;14.74;74.66;99066.19;137349;1201;99007;-71
2021/08/26 05:38:07;;;;;;;6.60;4.70;;;;;;;14.79;74.66;99064.32;137378;1201;98990;-72
2021/08/26 05:41:12;;;;;;;5.10;3.90;;;;;;;14.82;74.57;99064.84;137387;1201;108705;-78
2021/08/26 05:44:19;;;;;;;4.30;3.60;;;;;;;14.82;74.56;99068.32;137288;1201;97782;-71
2021/08/26 05:47:24;;;;;;;4.00;3.30;;;;;;;14.85;74.72;99067.31;137301;1201;112148;-70
2021/08/26 05:50:30;;;;;;;5.30;3.80;;;;;;;14.94;74.65;99064.49;137247;1201;98586;-77
2021/08/26 05:53:35;;;;;;;5.40;4.00;;;;;;;15.05;74.67;99064.79;137385;1203;97628;-73
2021/08/26 05:56:41;;;;;;;4.80;3.80;;;;;;;15.13;74.74;99060.34;137372;1202;108674;-72
2021/08/26 05:59:46;;;;;;;4.40;3.40;;;;;;;15.19;74.82;99052.76;137368;1202;97690;-74
2021/08/26 06:02:51;;;;;;;5.70;3.80;;;;;;;15.26;74.94;99053.84;137332;1195;112152;-78
2021/08/26 06:05:57;;;;;;;4.10;3.50;;;;;;;15.35;74.95;99046.85;137432;1202;98590;-73
2021/08/26 06:09:02;;;;;;;4.60;3.50;;;;;;;15.42;75.00;99047.12;137506;1201;98609;-73
2021/08/26 06:12:08;;;;;;;4.40;3.60;;;;;;;15.49;74.72;99049.45;137429;1202;109016;-73
2021/08/26 06:15:15;;;;;;;4.20;3.30;;;;;;;15.55;74.94;99053.16;137407;1202;97740;-70
2021/08/26 06:18:21;;;;;;;5.70;4.10;;;;;;;15.65;74.98;99058.17;137309;1201;112122;-71
2021/08/26 06:21:26;;;;;;;4.30;3.40;;;;;;;15.71;74.73;99058.16;137398;1195;98622;-72
2021/08/26 06:24:32;;;;;;;4.80;2.80;;;;;;;15.75;74.85;99058.59;137429;1194;97770;-71
2021/08/26 06:27:38;;;;;;;4.00;3.30;;;;;;;15.84;74.82;99056.14;137399;1200;108496;-72
2021/08/26 06:30:43;;;;;;;4.60;3.50;;;;;;;15.92;74.75;99062.04;137381;1200;99013;-72
2021/08/26 06:33:48;;;;;;;3.50;3.00;;;;;;;16.02;74.73;99058.83;137350;1201;112177;-70
2021/08/26 06:36:54;;;;;;;4.40;3.30;;;;;;;16.18;74.90;99057.79;137402;1193;99022;-70
2021/08/26 06:39:59;;;;;;;4.40;3.80;;;;;;;16.33;74.90;99063.23;137187;1200;97704;-70
2021/08/26 06:43:05;;;;;;;5.90;5.10;;;;;;;16.40;74.65;99061.09;137381;1200;108635;-69
2021/08/26 06:46:11;;;;;;;5.00;3.90;;;;;;;16.49;74.65;99061.39;137208;1201;99103;-71
2021/08/26 06:49:16;;;;;;;10.10;8.30;;;;;;;16.59;74.62;99068.92;137451;1200;112152;-73
2021/08/26 06:52:22;;;;;;;5.50;4.20;;;;;;;16.67;74.40;99070.64;137474;1201;97781;-71
2021/08/26 06:55:27;;;;;;;9.00;7.20;;;;;;;16.66;74.37;99065.13;137421;1200;98297;-71
2021/08/26 06:58:33;;;;;;;6.80;5.70;;;;;;;16.64;74.37;99065.77;137219;1201;108364;-69
2021/08/26 07:01:38;;;;;;;5.50;4.40;;;;;;;16.62;74.41;99065.75;137238;1195;103091;-69
2021/08/26 07:04:43;;;;;;;5.50;4.20;;;;;;;16.65;74.52;99065.14;137234;1194;110926;-69
2021/08/26 07:07:49;;;;;;;3.50;3.00;;;;;;;16.71;74.48;99067.64;137255;1201;97755;-69
2021/08/26 07:10:54;;;;;;;7.80;6.30;;;;;;;16.77;74.44;99062.66;137260;1201;98588;-76
2021/08/26 07:14:00;;;;;;;5.10;3.20;;;;;;;16.80;74.27;99058.27;137279;1200;108446;-70
2021/08/26 07:17:05;;;;;;;8.40;6.60;;;;;;;16.77;74.23;99061.38;137207;1201;98973;-70
2021/08/26 07:20:13;;;;;;;8.80;6.10;;;;;;;16.77;74.37;99055.70;137225;1201;112206;-70
2021/08/26 07:23:19;;;;;;;13.60;9.00;;;;;;;16.79;74.34;99050.00;137249;1201;97651;-70
2021/08/26 07:26:24;;;;;;;6.10;4.60;;;;;;;16.81;74.37;99049.73;137273;1201;97681;-68
2021/08/26 07:29:30;;;;;;;3.90;2.50;;;;;;;16.81;74.38;99058.86;137206;1201;108481;-70
2021/08/26 07:32:35;;;;;;;2.90;2.30;;;;;;;16.87;74.30;99056.03;137234;1200;98702;-69
2021/08/26 07:35:40;;;;;;;3.30;2.50;;;;;;;17.03;74.29;99058.98;137199;1201;112256;-71
2021/08/26 07:38:46;;;;;;;3.00;2.20;;;;;;;17.18;74.20;99062.45;137369;1201;98605;-70
2021/08/26 07:41:51;;;;;;;3.00;2.10;;;;;;;17.32;74.19;99065.73;137625;1195;97697;-73
2021/08/26 07:45:02;;;;;;;3.20;2.70;;;;;;;17.34;74.03;99064.80;137445;1202;107471;-73
2021/08/26 07:48:08;;;;;;;2.60;2.10;;;;;;;17.36;73.97;99060.53;137351;1202;98045;-72
2021/08/26 07:51:13;;;;;;;2.50;1.90;;;;;;;17.43;74.01;99060.41;137399;1203;112960;-75
2021/08/26 07:54:18;;;;;;;3.00;2.50;;;;;;;17.58;74.08;99054.16;137318;1197;97802;-72
2021/08/26 07:57:24;;;;;;;2.70;2.40;;;;;;;17.70;73.91;99054.52;137404;1202;97662;-70
2021/08/26 08:00:30;;;;;;;3.40;2.30;;;;;;;17.76;73.71;99057.14;137160;1202;108805;-72
2021/08/26 08:03:36;;;;;;;2.50;2.30;;;;;;;17.79;73.63;99053.73;137327;1201;97903;-72
2021/08/26 08:06:41;;;;;;;2.60;1.90;;;;;;;17.85;73.63;99048.77;137306;1202;112282;-69
2021/08/26 08:09:46;;;;;;;2.60;2.10;;;;;;;17.94;73.66;99048.88;137154;1202;99109;-70
2021/08/26 08:12:52;;;;;;;2.80;2.30;;;;;;;18.02;73.53;99049.90;137217;1203;97747;-72
2021/08/26 08:15:57;;;;;;;2.90;2.40;;;;;;;18.07;73.41;99050.07;137367;1194;108455;-71
2021/08/26 08:19:03;;;;;;;2.90;2.60;;;;;;;18.12;73.43;99050.38;137337;1201;97757;-73
2021/08/26 08:22:08;;;;;;;3.60;2.70;;;;;;;18.21;73.32;99046.06;137400;1201;112322;-74
2021/08/26 08:25:14;;;;;;;3.10;2.80;;;;;;;18.35;73.26;99040.17;137491;1201;98530;-71
2021/08/26 08:28:20;;;;;;;3.00;2.70;;;;;;;18.53;73.28;99039.13;137380;1196;97769;-73
2021/08/26 08:31:25;;;;;;;5.50;2.80;;;;;;;18.68;72.94;99035.70;137420;1200;108395;-71
2021/08/26 08:34:31;;;;;;;4.00;2.90;;;;;;;18.73;72.59;99040.72;137380;1201;98631;-73
2021/08/26 08:37:36;;;;;;;3.10;2.80;;;;;;;18.74;72.62;99042.38;137368;1201;112328;-74
2021/08/26 08:40:45;;;;;;;3.70;3.30;;;;;;;18.83;72.44;99038.32;137462;1201;99001;-76
2021/08/26 08:43:52;;;;;;;3.90;3.50;;;;;;;18.82;72.52;99045.11;137422;1201;98586;-73
2021/08/26 08:46:59;;;;;;;3.60;3.30;;;;;;;18.72;72.26;99048.23;137371;1201;108282;-71
2021/08/26 08:50:06;;;;;;;3.70;2.50;;;;;;;18.67;72.34;99046.31;137419;1201;97783;-72
2021/08/26 08:53:17;;;;;;;2.80;2.50;;;;;;;18.76;72.14;99045.22;137502;1201;112115;-72
2021/08/26 08:56:26;;;;;;;3.30;2.60;;;;;;;18.89;72.18;99039.91;137514;1201;97716;-76
2021/08/26 08:59:34;;;;;;;2.90;2.60;;;;;;;18.95;71.76;99039.52;137360;1201;97676;-73
2021/08/26 09:02:39;;;;;;;2.80;2.50;;;;;;;18.94;71.62;99039.73;137381;1201;108231;-78
2021/08/26 09:05:57;;;;;;;3.50;2.80;;;;;;;18.89;71.45;99035.52;137454;1200;97698;-72
2021/08/26 09:09:06;;;;;;;3.20;2.90;;;;;;;18.82;71.52;99029.77;137433;1200;112517;-72
2021/08/26 09:12:12;;;;;;;3.20;2.30;;;;;;;18.87;71.33;99027.48;137491;1200;97703;-72
2021/08/26 09:15:20;;;;;;;4.00;2.40;;;;;;;19.01;71.42;99029.90;137409;1201;97670;-71
2021/08/26 09:18:25;;;;;;;3.80;2.90;;;;;;;19.25;71.44;99035.96;137461;1201;108478;-78
2021/08/26 09:21:39;;;;;;;3.00;2.50;;;;;;;19.46;70.80;99033.23;137460;1201;98577;-73
2021/08/26 09:24:49;;;;;;;4.20;2.90;;;;;;;19.65;70.52;99031.20;137495;1201;112259;-70
2021/08/26 09:27:54;;;;;;;4.30;2.70;;;;;;;19.81;70.48;99032.45;137457;1201;98630;-75
2021/08/26 09:31:18;;;;;;;2.90;2.60;;;;;;;20.01;70.37;99032.25;137624;1195;97660;-74
2021/08/26 09:49:42;;;;;;;3.50;2.90;;;;;;;20.90;68.87;99025.89;135782;1219;648642;-74
2021/08/26 09:52:54;;;;;;;3.00;2.70;;;;;;;21.06;68.21;99018.96;136885;1206;94040;-73
2021/08/26 09:56:03;;;;;;;4.40;4.00;;;;;;;21.07;67.99;99017.50;137058;1200;107704;-75
2021/08/26 09:59:08;;;;;;;3.50;2.90;;;;;;;21.04;67.67;99017.70;136880;1199;94616;-74
2021/08/26 10:02:14;;;;;;;2.60;2.30;;;;;;;21.01;67.55;99014.62;136829;1206;94283;-74
2021/08/26 10:05:20;;;;;;;3.30;2.80;;;;;;;21.12;67.83;99015.48;136871;1206;108617;-72
2021/08/26 10:08:26;;;;;;;2.60;2.40;;;;;;;21.20;67.29;99013.16;136849;1207;94110;-74
2021/08/26 10:11:32;;;;;;;4.60;3.30;;;;;;;21.21;67.02;99018.40;136842;1206;108114;-75
2021/08/26 10:14:37;;;;;;;3.90;2.70;;;;;;;21.16;66.85;99011.28;137228;1198;94036;-76
2021/08/26 10:17:44;;;;;;;4.20;2.50;;;;;;;21.18;66.83;99018.14;137254;1205;95084;-76
2021/08/26 10:20:49;;;;;;;2.80;2.40;;;;;;;21.21;66.87;99021.59;137250;1205;107645;-74
2021/08/26 10:23:55;;;;;;;3.70;2.90;;;;;;;21.26;66.78;99025.94;137288;1204;94993;-75
2021/08/26 10:27:05;;;;;;;2.90;2.40;;;;;;;21.24;66.44;99019.61;137277;1197;108908;-72
2021/08/26 10:30:26;;;;;;;3.10;2.80;;;;;;;21.14;66.47;99019.44;137398;1205;94959;-72
2021/08/26 10:33:33;;;;;;;4.10;2.50;;;;;;;20.98;66.07;99018.98;137428;1206;94990;-72
2021/08/26 10:36:47;;;;;;;3.40;2.60;;;;;;;20.85;66.35;99022.55;137301;1205;109502;-73
2021/08/26 10:39:53;;;;;;;3.20;2.80;;;;;;;20.83;66.30;99025.94;137236;1205;95876;-72
2021/08/26 10:42:59;;;;;;;2.90;2.60;;;;;;;20.79;66.30;99025.73;137220;1205;109555;-74
2021/08/26 10:46:07;;;;;;;3.00;2.50;;;;;;;20.74;66.15;99021.42;137189;1205;94982;-72
2021/08/26 10:49:12;;;;;;;4.10;2.10;;;;;;;20.64;65.89;99019.61;137263;1205;95904;-74
2021/08/26 10:52:55;;;;;;;4.00;2.80;;;;;;;20.69;66.04;99020.48;137199;1197;108504;-71
2021/08/26 10:56:17;;;;;;;4.10;2.80;;;;;;;20.84;65.37;99016.89;137342;1205;95870;-73
2021/08/26 10:59:30;;;;;;;3.00;2.40;;;;;;;20.98;64.84;99018.65;137275;1205;109540;-72
2021/08/26 11:02:43;;;;;;;3.00;2.30;;;;;;;21.08;65.01;99021.86;137268;1205;95071;-78
2021/08/26 11:05:48;;;;;;;2.90;2.40;;;;;;;21.13;65.05;99021.04;137360;1205;94981;-77
2021/08/26 11:08:55;;;;;;;2.40;2.20;;;;;;;21.09;64.82;99023.29;137284;1205;108402;-76
2021/08/26 11:12:06;;;;;;;3.10;2.20;;;;;;;21.03;64.82;99021.11;137297;1205;94972;-77
2021/08/26 11:15:26;;;;;;;2.80;2.30;;;;;;;21.04;64.76;99023.50;137516;1197;109362;-73
2021/08/26 11:18:32;;;;;;;3.00;2.30;;;;;;;21.12;64.73;99022.85;137285;1206;95082;-73
2021/08/26 11:22:05;;;;;;;3.00;2.30;;;;;;;21.16;64.49;99025.77;137258;1206;95090;-73
2021/08/26 11:25:27;;;;;;;3.80;2.20;;;;;;;21.02;63.82;99025.20;140632;1197;108495;-73
2021/08/26 11:28:37;;;;;;;3.60;2.20;;;;;;;20.78;64.43;99036.17;137416;1205;96008;-75
2021/08/26 11:31:43;;;;;;;4.00;2.30;;;;;;;20.43;64.70;99044.84;137300;1205;108384;-74
2021/08/26 11:34:51;;;;;;;3.30;2.10;;;;;;;20.06;64.64;99043.76;137469;1205;95442;-73
2021/08/26 11:37:56;;;;;;;3.80;2.30;;;;;;;19.77;65.31;99040.77;137309;1205;95072;-73
2021/08/26 11:41:06;;;;;;;2.50;2.20;;;;;;;19.68;65.69;99041.96;137222;1205;108419;-73
2021/08/26 11:44:16;;;;;;;3.40;2.40;;;;;;;19.60;65.85;99043.12;137226;1206;95890;-74
2021/08/26 11:47:31;;;;;;;3.20;2.40;;;;;;;19.58;66.03;99045.26;137218;1205;109926;-74
2021/08/26 11:50:38;;;;;;;4.00;2.60;;;;;;;19.57;66.18;99036.73;137219;1197;95390;-73
2021/08/26 11:53:44;;;;;;;2.90;2.50;;;;;;;19.60;66.17;99035.17;137270;1205;95130;-73
2021/08/26 11:56:52;;;;;;;3.80;2.70;;;;;;;19.58;66.21;99036.17;137269;1198;108525;-74
2021/08/26 12:00:05;;;;;;;3.20;2.60;;;;;;;19.59;66.24;99039.86;137262;1205;94973;-74
2021/08/26 12:03:18;;;;;;;2.50;2.30;;;;;;;19.65;66.23;99045.98;137201;1206;109536;-74
2021/08/26 12:06:24;;;;;;;3.20;2.60;;;;;;;19.79;66.33;99049.52;137249;1206;95931;-73
2021/08/26 12:09:29;;;;;;;2.20;1.90;;;;;;;19.93;66.42;99049.66;137205;1206;94925;-74
2021/08/26 12:12:35;;;;;;;2.80;2.20;;;;;;;20.03;66.24;99050.14;137202;1206;108522;-73
2021/08/26 12:15:45;;;;;;;2.40;2.00;;;;;;;20.07;66.18;99050.27;137371;1205;95108;-74
2021/08/26 12:18:50;;;;;;;2.90;2.00;;;;;;;20.02;66.19;99047.16;137191;1206;109946;-75
2021/08/26 12:21:55;;;;;;;2.20;2.00;;;;;;;19.96;66.31;99059.58;137255;1206;95911;-73
2021/08/26 12:25:03;;;;;;;2.40;2.20;;;;;;;19.98;66.32;99062.54;137248;1198;95760;-74
2021/08/26 12:28:11;;;;;;;3.00;2.00;;;;;;;20.06;66.25;99060.77;137291;1203;108675;-72
2021/08/26 12:31:19;;;;;;;1.70;1.60;;;;;;;20.15;65.76;99065.30;137364;1203;95902;-72
2021/08/26 12:34:30;;;;;;;1.50;1.30;;;;;;;20.16;65.86;99063.91;137368;1203;109294;-74
2021/08/26 12:37:47;;;;;;;1.70;1.30;;;;;;;20.20;65.84;99070.70;137371;1195;95446;-74
2021/08/26 12:40:56;;;;;;;1.30;1.20;;;;;;;20.22;65.94;99077.06;137345;1203;95071;-75
2021/08/26 12:44:01;;;;;;;1.40;1.20;;;;;;;20.23;65.75;99074.76;137331;1204;107019;-73
2021/08/26 12:47:08;;;;;;;1.70;1.10;;;;;;;20.26;65.84;99074.92;137307;1204;95912;-73
2021/08/26 12:50:13;;;;;;;1.20;1.10;;;;;;;20.27;65.77;99072.38;137312;1203;109161;-72
2021/08/26 12:53:20;;;;;;;1.50;1.30;;;;;;;20.24;65.77;99065.46;137330;1203;95895;-73
2021/08/26 12:56:26;;;;;;;2.00;1.70;;;;;;;20.18;65.85;99069.52;137347;1203;95074;-73
2021/08/26 12:59:42;;;;;;;2.10;1.80;;;;;;;20.05;65.72;99070.60;137333;1203;108540;-73
2021/08/26 13:02:54;;;;;;;2.40;1.70;;;;;;;19.89;65.81;99073.67;137324;1204;95717;-73
2021/08/26 13:05:59;;;;;;;1.60;1.50;;;;;;;19.73;66.15;99073.59;137382;1203;108945;-73
2021/08/26 13:09:08;;;;;;;1.90;1.60;;;;;;;19.67;66.31;99071.02;137278;1203;94978;-73
2021/08/26 13:12:19;;;;;;;2.40;1.70;;;;;;;19.74;66.20;99061.11;137416;1203;95917;-74
2021/08/26 13:15:25;;;;;;;2.00;1.70;;;;;;;19.92;66.28;99060.48;137294;1203;108673;-72
2021/08/26 13:18:31;;;;;;;4.20;2.10;;;;;;;20.11;66.18;99060.83;137298;1195;94992;-72
2021/08/26 13:21:36;;;;;;;3.20;2.20;;;;;;;20.16;66.12;99061.86;137315;1196;109780;-72
2021/08/26 13:24:42;;;;;;;3.80;2.30;;;;;;;20.22;66.13;99057.45;137285;1195;94999;-74
2021/08/26 13:27:48;;;;;;;2.80;2.30;;;;;;;20.23;66.11;99054.38;137366;1197;95129;-74
2021/08/26 13:30:55;;;;;;;2.80;2.20;;;;;;;20.27;66.30;99053.52;137345;1196;108712;-74
2021/08/26 13:34:01;;;;;;;3.20;2.30;;;;;;;20.35;66.33;99048.84;137164;1203;94993;-72
2021/08/26 13:37:07;;;;;;;3.40;2.60;;;;;;;20.48;66.34;99043.83;137308;1204;109137;-73
2021/08/26 13:40:15;;;;;;;2.70;2.10;;;;;;;20.64;66.42;99047.56;137295;1197;95094;-72
2021/08/26 13:43:20;;;;;;;2.30;2.00;;;;;;;20.83;66.30;99039.82;137352;1203;95002;-72
2021/08/26 13:46:25;;;;;;;2.00;1.80;;;;;;;21.04;65.87;99040.74;137276;1203;108582;-72
2021/08/26 13:49:31;;;;;;;2.10;1.80;;;;;;;21.26;65.95;99044.33;137342;1203;94976;-72
2021/08/26 13:52:37;;;;;;;2.40;1.80;;;;;;;21.50;65.95;99047.94;137344;1203;109452;-73
2021/08/26 13:55:43;;;;;;;3.20;1.70;;;;;;;21.63;65.66;99046.08;137317;1203;94999;-73
2021/08/26 13:58:48;;;;;;;2.20;1.70;;;;;;;21.59;65.26;99046.64;137292;1204;95074;-72
2021/08/26 14:01:54;;;;;;;4.60;2.90;;;;;;;21.42;63.63;99048.38;137318;1203;108565;-72
2021/08/26 14:05:00;;;;;;;8.00;5.90;;;;;;;20.92;63.76;99050.12;137299;1204;95934;-73
2021/08/26 14:08:05;;;;;;;12.00;7.70;;;;;;;20.47;63.62;99051.58;137336;1204;109534;-73
2021/08/26 14:11:11;;;;;;;21.70;14.20;;;;;;;19.99;63.29;99047.97;137285;1203;94972;-73
2021/08/26 14:14:16;;;;;;;18.30;13.20;;;;;;;19.55;64.14;99049.58;137313;1204;95889;-72
2021/08/26 14:17:22;;;;;;;9.10;5.60;;;;;;;19.32;64.62;99056.59;137293;1203;108531;-72
2021/08/26 14:20:28;;;;;;;3.50;2.50;;;;;;;19.20;64.77;99059.27;137305;1203;95076;-72
2021/08/26 14:23:33;;;;;;;3.30;1.90;;;;;;;19.21;65.13;99062.87;137334;1204;110133;-72
2021/08/26 14:26:39;;;;;;;1.80;1.60;;;;;;;19.30;64.95;99063.53;137318;1203;95845;-72
2021/08/26 14:29:45;;;;;;;1.90;1.70;;;;;;;19.29;64.90;99057.52;137358;1203;95295;-73
2021/08/26 14:32:50;;;;;;;2.00;1.70;;;;;;;19.35;64.65;99057.68;137363;1203;109167;-71
2021/08/26 14:35:55;;;;;;;3.70;2.70;;;;;;;19.41;64.35;99056.30;137457;1203;96342;-71
2021/08/26 14:39:01;;;;;;;3.10;2.50;;;;;;;19.37;63.89;99061.19;137343;1203;109492;-70
2021/08/26 14:42:06;;;;;;;3.20;2.40;;;;;;;19.25;63.58;99073.91;137282;1195;95006;-71
2021/08/26 14:45:13;;;;;;;2.50;1.90;;;;;;;19.02;62.96;99077.88;137410;1200;94964;-70
2021/08/26 14:48:18;;;;;;;6.40;4.50;;;;;;;18.82;63.07;99078.38;137394;1204;108391;-70